Time;durP1;ratioP1;P1;durP2;ratioP2;P2;SDS_P1;SDS_P2;PMS_P1;PMS_P2;Temp;Humidity;BMP_temperature;BMP_pressure;BME280_temperature;BME280_humidity;BME280_pressure;Samples;Min_cycle;Max_cycle;Signal;HPM_P1;HPM_P2
2022/09/17 00:01:48;;;;;;;;;;;;;;;20.41;53.94;101972.03;7283989;19;153585;-56
2022/09/17 00:04:15;;;;;;;;;;;;;;;20.43;53.56;101966.13;7282943;19;152220;-56
2022/09/17 00:06:42;;;;;;;;;;;;;;;20.44;53.37;101964.19;7284882;19;153805;-55
2022/09/17 00:09:09;;;;;;;;;;;;;;;20.44;53.63;101967.81;7281943;19;152625;-55
2022/09/17 00:11:38;;;;;;;;;;;;;;;20.44;53.62;101976.25;7283960;19;153878;-56
2022/09/17 00:14:08;;;;;;;;;;;;;;;20.42;53.99;101970.06;7281050;19;151961;-56
2022/09/17 00:16:38;;;;;;;;;;;;;;;20.41;53.73;101966.41;7282927;19;152620;-56
2022/09/17 00:19:06;;;;;;;;;;;;;;;20.44;53.68;101972.59;7291135;19;153446;-56
2022/09/17 00:21:33;;;;;;;;;;;;;;;20.45;54.04;101969.50;7279704;19;152711;-55
2022/09/17 00:24:02;;;;;;;;;;;;;;;20.45;53.70;101972.28;7283642;19;153710;-55
2022/09/17 00:26:30;;;;;;;;;;;;;;;20.46;53.77;101981.56;7284918;19;152042;-55
2022/09/17 00:28:57;;;;;;;;;;;;;;;20.45;53.78;101971.44;7284650;19;153930;-56
2022/09/17 00:31:25;;;;;;;;;;;;;;;20.45;54.09;101966.69;7282130;19;156082;-55
2022/09/17 00:33:52;;;;;;;;;;;;;;;20.45;54.00;101963.88;7282878;19;152442;-56
2022/09/17 00:36:20;;;;;;;;;;;;;;;20.45;53.85;101969.50;7284721;19;152928;-55
2022/09/17 00:38:48;;;;;;;;;;;;;;;20.45;53.88;101969.50;7282741;19;154134;-56
2022/09/17 00:41:15;;;;;;;;;;;;;;;20.46;53.87;101973.13;7291242;19;152003;-56
2022/09/17 00:43:42;;;;;;;;;;;;;;;20.42;53.88;101968.09;7277836;19;153304;-55
2022/09/17 00:46:16;;;;;;;;;;;;;;;20.42;54.25;101967.25;7281982;19;152751;-56
2022/09/17 00:48:44;;;;;;;;;;;;;;;20.42;54.14;101956.03;7281269;19;152734;-56
2022/09/17 00:51:13;;;;;;;;;;;;;;;20.44;54.18;101964.19;7283419;19;154487;-56
2022/09/17 00:53:40;;;;;;;;;;;;;;;20.42;53.63;101965.28;7280788;19;153523;-56
2022/09/17 00:56:15;;;;;;;;;;;;;;;20.39;54.27;101959.41;7283692;19;153136;-56
2022/09/17 00:58:42;;;;;;;;;;;;;;;20.41;53.93;101959.94;7281735;19;154633;-56
2022/09/17 01:01:09;;;;;;;;;;;;;;;20.40;54.13;101961.06;7288784;19;152405;-56
2022/09/17 01:03:36;;;;;;;;;;;;;;;20.41;53.71;101971.19;7281448;19;153880;-55
2022/09/17 01:06:16;;;;;;;;;;;;;;;20.43;54.09;101960.53;7283675;19;152863;-55
2022/09/17 01:09:09;;;;;;;;;;;;;;;20.40;54.13;101961.91;7281646;19;152685;-56
2022/09/17 01:11:55;;;;;;;;;;;;;;;20.41;54.30;101965.56;7281627;19;152922;-56
2022/09/17 01:14:22;;;;;;;;;;;;;;;20.43;54.06;101971.75;7278752;19;152778;-55
2022/09/17 01:16:53;;;;;;;;;;;;;;;20.42;54.20;101972.88;7280150;19;152921;-56
2022/09/17 01:19:46;;;;;;;;;;;;;;;20.42;53.93;101965.28;7280778;19;153500;-56
2022/09/17 01:22:18;;;;;;;;;;;;;;;20.44;54.33;101966.97;7280951;19;151914;-56
2022/09/17 01:24:57;;;;;;;;;;;;;;;20.42;54.41;101973.72;7287029;19;153494;-56
2022/09/17 01:27:24;;;;;;;;;;;;;;;20.43;53.88;101974.56;7279778;19;152919;-55
2022/09/17 01:30:03;;;;;;;;;;;;;;;20.40;54.31;101975.94;7281061;19;153393;-56
2022/09/17 01:32:38;;;;;;;;;;;;;;;20.42;54.14;101981.28;7277936;19;154123;-56
2022/09/17 01:35:23;;;;;;;;;;;;;;;20.42;54.33;101973.72;7282594;19;153024;-55
2022/09/17 01:38:04;;;;;;;;;;;;;;;20.41;54.60;101974.84;7281372;19;152554;-56
2022/09/17 01:40:34;;;;;;;;;;;;;;;20.42;54.38;101965.28;7281592;19;154478;-55
2022/09/17 01:43:08;;;;;;;;;;;;;;;20.41;54.72;101977.63;7279447;19;152584;-56
2022/09/17 01:45:35;;;;;;;;;;;;;;;20.39;54.85;101976.25;7281335;19;153482;-56
2022/09/17 01:48:07;;;;;;;;;;;;;;;20.41;54.39;101977.63;7286708;19;153605;-56
2022/09/17 01:50:38;;;;;;;;;;;;;;;20.42;54.65;101975.69;7281398;19;153688;-56
2022/09/17 01:53:10;;;;;;;;;;;;;;;20.41;54.62;101969.22;7280109;19;153418;-56
2022/09/17 01:55:42;;;;;;;;;;;;;;;20.40;54.75;101967.53;7281810;19;152135;-56
2022/09/17 01:58:15;;;;;;;;;;;;;;;20.40;54.56;101969.50;7278285;19;153887;-56
2022/09/17 02:00:46;;;;;;;;;;;;;;;20.40;54.50;101969.50;7277296;19;154402;-56
2022/09/17 02:03:18;;;;;;;;;;;;;;;20.40;54.59;101967.53;7279867;19;154325;-56
2022/09/17 02:05:45;;;;;;;;;;;;;;;20.39;54.55;101971.47;7282546;19;151767;-56
2022/09/17 02:08:18;;;;;;;;;;;;;;;20.39;54.40;101976.25;7287305;19;153179;-56
2022/09/17 02:11:05;;;;;;;;;;;;;;;20.39;54.28;101970.63;7294808;19;152340;-55
2022/09/17 02:13:42;;;;;;;;;;;;;;;20.39;54.13;101974.28;7285029;19;154291;-56
2022/09/17 02:16:14;;;;;;;;;;;;;;;20.39;54.40;101967.81;7285573;19;152370;-56
2022/09/17 02:18:41;;;;;;;;;;;;;;;20.37;54.21;101973.72;7282226;19;153522;-56
2022/09/17 02:21:14;;;;;;;;;;;;;;;20.38;54.11;101974.56;7284963;19;152197;-56
2022/09/17 02:24:00;;;;;;;;;;;;;;;20.38;54.04;101969.78;7288114;19;152328;-56
2022/09/17 02:26:28;;;;;;;;;;;;;;;20.36;54.19;101979.59;7287477;19;153411;-56
2022/09/17 02:29:03;;;;;;;;;;;;;;;20.35;54.35;101973.16;7286790;19;154273;-56
2022/09/17 02:31:30;;;;;;;;;;;;;;;20.35;54.24;101977.94;7286259;19;152053;-56
2022/09/17 02:34:00;;;;;;;;;;;;;;;20.36;54.50;101991.69;7291662;19;152146;-56
2022/09/17 02:36:27;;;;;;;;;;;;;;;20.37;54.42;101984.94;7288726;19;152030;-56
2022/09/17 02:38:57;;;;;;;;;;;;;;;20.37;54.13;101987.75;7287183;19;153870;-56
2022/09/17 02:41:30;;;;;;;;;;;;;;;20.35;54.50;101978.75;7285792;19;154537;-55
2022/09/17 02:44:02;;;;;;;;;;;;;;;20.36;54.29;101985.22;7286678;19;152294;-56
2022/09/17 02:46:33;;;;;;;;;;;;;;;20.35;54.67;101987.19;7285209;19;152924;-56
2022/09/17 02:49:14;;;;;;;;;;;;;;;20.34;54.32;101991.13;7285855;19;153359;-56
2022/09/17 02:51:47;;;;;;;;;;;;;;;20.32;54.75;101982.13;7287404;19;152261;-56
2022/09/17 02:54:37;;;;;;;;;;;;;;;20.33;54.55;101986.63;7283926;19;153465;-56
2022/09/17 02:57:11;;;;;;;;;;;;;;;20.29;54.70;101991.09;7292725;19;152040;-56
2022/09/17 02:59:47;;;;;;;;;;;;;;;20.30;54.57;101997.59;7285651;19;152724;-56
2022/09/17 03:02:17;;;;;;;;;;;;;;;20.32;54.83;101993.38;7284547;19;154362;-55
2022/09/17 03:04:46;;;;;;;;;;;;;;;20.31;54.78;101994.47;7286357;19;152002;-56
2022/09/17 03:07:13;;;;;;;;;;;;;;;20.32;54.56;102003.75;7285225;19;153702;-56
2022/09/17 03:09:42;;;;;;;;;;;;;;;20.32;54.69;101987.75;7284172;19;154212;-55
2022/09/17 03:12:10;;;;;;;;;;;;;;;20.35;54.66;102003.22;7286863;19;152368;-56
2022/09/17 03:14:37;;;;;;;;;;;;;;;20.34;54.59;101996.75;7283639;19;152724;-56
2022/09/17 03:17:04;;;;;;;;;;;;;;;20.32;54.55;101996.16;7291757;19;153695;-56
2022/09/17 03:19:31;;;;;;;;;;;;;;;20.31;54.55;101991.69;7285627;19;152539;-56
2022/09/17 03:21:58;;;;;;;;;;;;;;;20.33;54.98;101991.41;7285432;19;152542;-56
2022/09/17 03:24:26;;;;;;;;;;;;;;;20.32;54.97;101995.31;7285527;19;152006;-56
2022/09/17 03:26:52;;;;;;;;;;;;;;;20.32;54.73;101995.31;7281608;19;153369;-56
2022/09/17 03:29:20;;;;;;;;;;;;;;;20.31;54.84;101988.03;7282867;19;154016;-56
2022/09/17 03:31:47;;;;;;;;;;;;;;;20.31;54.63;101994.47;7284848;19;153314;-56
2022/09/17 03:34:14;;;;;;;;;;;;;;;20.31;54.85;101994.47;7283428;19;153390;-56
2022/09/17 03:36:41;;;;;;;;;;;;;;;20.31;54.67;101999.25;7285060;19;153706;-56
2022/09/17 03:39:08;;;;;;;;;;;;;;;20.30;54.48;101997.59;7289496;19;157765;-56
2022/09/17 03:41:35;;;;;;;;;;;;;;;20.31;54.63;101996.44;7285656;19;153752;-56
2022/09/17 03:44:02;;;;;;;;;;;;;;;20.30;54.78;101997.59;7284294;19;152882;-56
2022/09/17 03:46:29;;;;;;;;;;;;;;;20.29;54.50;101993.06;7283162;19;152691;-56
2022/09/17 03:48:56;;;;;;;;;;;;;;;20.28;54.63;101997.81;7284603;19;153347;-56
2022/09/17 03:51:23;;;;;;;;;;;;;;;20.28;54.91;101988.56;7285444;19;152049;-56
2022/09/17 03:53:50;;;;;;;;;;;;;;;20.29;54.69;101995.88;7284419;19;153462;-55
2022/09/17 03:56:17;;;;;;;;;;;;;;;20.27;54.51;101993.34;7283545;19;154489;-55
2022/09/17 03:58:44;;;;;;;;;;;;;;;20.27;54.61;101990.53;7284879;19;152320;-56
2022/09/17 04:01:10;;;;;;;;;;;;;;;20.27;54.73;101995.28;7290674;19;153367;-55
2022/09/17 04:03:37;;;;;;;;;;;;;;;20.25;54.66;101989.13;7285153;19;152303;-56
2022/09/17 04:06:05;;;;;;;;;;;;;;;20.25;54.95;101995.59;7285314;19;153443;-56
2022/09/17 04:08:32;;;;;;;;;;;;;;;20.26;54.53;102002.06;7284550;19;153416;-56
2022/09/17 04:10:59;;;;;;;;;;;;;;;20.23;54.84;102009.06;7284999;19;151662;-56
2022/09/17 04:13:26;;;;;;;;;;;;;;;20.23;54.62;101997.81;7283932;19;152862;-56
2022/09/17 04:15:53;;;;;;;;;;;;;;;20.23;54.94;101997.81;7282062;19;155338;-56
2022/09/17 04:18:20;;;;;;;;;;;;;;;20.23;54.69;102002.59;7284274;19;152480;-56
2022/09/17 04:20:47;;;;;;;;;;;;;;;20.23;54.55;102008.19;7284531;19;153470;-56
2022/09/17 04:23:14;;;;;;;;;;;;;;;20.22;54.56;102009.31;7290453;19;153396;-56
2022/09/17 04:25:41;;;;;;;;;;;;;;;20.20;54.75;102006.81;7282853;19;152849;-56
2022/09/17 04:28:09;;;;;;;;;;;;;;;20.22;54.77;102006.50;7281578;19;152175;-56
2022/09/17 04:30:37;;;;;;;;;;;;;;;20.19;54.66;102010.75;7282947;19;152925;-56
2022/09/17 04:33:06;;;;;;;;;;;;;;;20.19;54.49;101996.72;7283026;19;151916;-56
2022/09/17 04:35:33;;;;;;;;;;;;;;;20.19;54.75;102001.47;7280436;19;154530;-55
2022/09/17 04:38:00;;;;;;;;;;;;;;;20.19;54.85;101996.72;7283603;19;152356;-55
2022/09/17 04:40:27;;;;;;;;;;;;;;;20.19;54.88;102007.09;7283925;19;152681;-55
2022/09/17 04:42:55;;;;;;;;;;;;;;;20.19;54.88;102012.69;7279449;19;153915;-55
2022/09/17 04:45:22;;;;;;;;;;;;;;;20.18;54.96;102002.59;7290209;19;154876;-56
2022/09/17 04:47:50;;;;;;;;;;;;;;;20.17;55.19;102006.53;7280588;19;153497;-56
2022/09/17 04:50:20;;;;;;;;;;;;;;;20.18;54.76;102002.59;7285015;19;153199;-55
2022/09/17 04:52:48;;;;;;;;;;;;;;;20.17;54.96;101992.50;7284666;19;153849;-56
2022/09/17 04:55:15;;;;;;;;;;;;;;;20.16;54.87;101997.28;7279960;19;154313;-56
2022/09/17 04:57:46;;;;;;;;;;;;;;;20.15;54.62;101987.16;7282681;19;152747;-55
2022/09/17 05:00:14;;;;;;;;;;;;;;;20.16;54.97;101997.28;7283661;19;153137;-56
2022/09/17 05:02:42;;;;;;;;;;;;;;;20.15;55.11;102011.56;7280259;19;152790;-55
2022/09/17 05:05:09;;;;;;;;;;;;;;;20.14;54.91;102004.28;7291918;19;151917;-57
2022/09/17 05:07:40;;;;;;;;;;;;;;;20.11;55.19;102007.66;7282061;19;154003;-56
2022/09/17 05:10:07;;;;;;;;;;;;;;;20.11;54.70;102002.03;7282450;19;152232;-56
2022/09/17 05:12:35;;;;;;;;;;;;;;;20.12;55.00;102007.38;7283033;19;151918;-56
2022/09/17 05:15:02;;;;;;;;;;;;;;;20.12;54.70;102009.34;7279751;19;153499;-56
2022/09/17 05:17:30;;;;;;;;;;;;;;;20.11;54.80;102013.25;7279652;19;152319;-55
2022/09/17 05:19:56;;;;;;;;;;;;;;;20.10;55.03;102012.41;7282525;19;153595;-56
2022/09/17 05:22:24;;;;;;;;;;;;;;;20.09;54.92;102013.53;7281306;19;153976;-56
2022/09/17 05:24:50;;;;;;;;;;;;;;;20.10;55.20;102020.84;7282153;19;151970;-56
2022/09/17 05:27:17;;;;;;;;;;;;;;;20.09;54.96;102021.09;7288385;19;153701;-56
2022/09/17 05:29:44;;;;;;;;;;;;;;;20.09;54.81;102021.09;7281666;19;152315;-56
2022/09/17 05:32:12;;;;;;;;;;;;;;;20.07;55.28;102020.56;7281395;19;152234;-55
2022/09/17 05:34:39;;;;;;;;;;;;;;;20.08;54.79;102020.25;7278458;19;154250;-56
2022/09/17 05:37:08;;;;;;;;;;;;;;;20.06;54.75;102016.91;7282404;19;153143;-55
2022/09/17 05:39:35;;;;;;;;;;;;;;;20.07;54.93;102020.56;7281981;19;152279;-56
2022/09/17 05:42:02;;;;;;;;;;;;;;;20.06;55.01;102021.69;7285564;19;153521;-56
2022/09/17 05:44:29;;;;;;;;;;;;;;;20.06;54.98;102021.69;7287793;19;152975;-56
2022/09/17 05:46:55;;;;;;;;;;;;;;;20.05;55.10;102034.84;7287111;19;153018;-56
2022/09/17 05:49:22;;;;;;;;;;;;;;;20.04;54.94;102032.31;7294804;19;153340;-55
2022/09/17 05:51:50;;;;;;;;;;;;;;;20.05;54.94;102031.19;7287376;19;153014;-55
2022/09/17 05:54:17;;;;;;;;;;;;;;;20.05;55.08;102034.00;7287319;19;153465;-56
2022/09/17 05:56:45;;;;;;;;;;;;;;;20.03;54.78;102031.50;7288649;19;152943;-56
2022/09/17 05:59:11;;;;;;;;;;;;;;;20.04;54.93;102029.50;7287123;19;153445;-56
2022/09/17 06:01:38;;;;;;;;;;;;;;;20.03;54.97;102031.50;7286900;19;154467;-56
2022/09/17 06:04:05;;;;;;;;;;;;;;;20.02;55.19;102046.66;7287241;19;151922;-55
2022/09/17 06:06:32;;;;;;;;;;;;;;;20.03;54.92;102039.91;7287455;19;153982;-56
2022/09/17 06:08:59;;;;;;;;;;;;;;;20.03;54.89;102048.34;7288232;19;153469;-55
2022/09/17 06:11:27;;;;;;;;;;;;;;;20.02;54.90;102043.00;7294822;19;152520;-55
2022/09/17 06:13:54;;;;;;;;;;;;;;;20.00;55.12;102048.88;7282856;19;153350;-56
2022/09/17 06:16:22;;;;;;;;;;;;;;;19.98;55.04;102051.97;7282178;19;152914;-56
2022/09/17 06:18:49;;;;;;;;;;;;;;;19.99;55.16;102058.41;7287203;19;152640;-56
2022/09/17 06:21:20;;;;;;;;;;;;;;;20.00;55.28;102062.91;7287666;19;153364;-56
2022/09/17 06:23:47;;;;;;;;;;;;;;;19.99;54.92;102055.59;7287043;19;151809;-56
2022/09/17 06:26:15;;;;;;;;;;;;;;;20.00;54.79;102060.09;7286954;19;152812;-56
2022/09/17 06:28:42;;;;;;;;;;;;;;;19.99;55.20;102064.84;7285201;19;154025;-56
2022/09/17 06:31:13;;;;;;;;;;;;;;;19.98;54.76;102066.00;7287135;19;152145;-56
2022/09/17 06:33:42;;;;;;;;;;;;;;;19.97;55.10;102055.03;7293795;19;152828;-56
2022/09/17 06:36:11;;;;;;;;;;;;;;;19.95;54.77;102058.13;7286367;19;154552;-56
2022/09/17 06:38:40;;;;;;;;;;;;;;;19.96;54.77;102062.63;7284370;19;153123;-56
2022/09/17 06:41:07;;;;;;;;;;;;;;;19.97;54.58;102060.66;7287065;19;153353;-56
2022/09/17 06:43:34;;;;;;;;;;;;;;;19.95;54.60;102057.28;7283663;19;152187;-56
2022/09/17 06:46:04;;;;;;;;;;;;;;;19.95;54.57;102063.72;7284494;19;152559;-55
2022/09/17 06:48:32;;;;;;;;;;;;;;;19.93;54.54;102059.53;7284817;19;154361;-56
2022/09/17 06:51:03;;;;;;;;;;;;;;;19.93;54.72;102060.38;7286337;19;152195;-56
2022/09/17 06:53:31;;;;;;;;;;;;;;;19.93;54.94;102066.00;7287137;19;153049;-56
2022/09/17 06:55:59;;;;;;;;;;;;;;;19.91;54.62;102057.00;7290983;19;154048;-56
2022/09/17 06:58:32;;;;;;;;;;;;;;;19.91;54.67;102056.16;7286651;19;152150;-56
2022/09/17 07:01:00;;;;;;;;;;;;;;;19.90;54.76;102054.44;7284681;19;153927;-55
2022/09/17 07:03:27;;;;;;;;;;;;;;;19.92;55.10;102047.47;7285007;19;151858;-56
2022/09/17 07:05:54;;;;;;;;;;;;;;;19.90;54.70;102048.84;7286676;19;153618;-56
2022/09/17 07:08:21;;;;;;;;;;;;;;;19.91;54.58;102047.72;7284862;19;153773;-56
2022/09/17 07:10:49;;;;;;;;;;;;;;;19.90;54.59;102046.03;7286648;19;152655;-56
2022/09/17 07:13:17;;;;;;;;;;;;;;;19.90;54.56;102055.31;7285313;19;152520;-56
2022/09/17 07:15:50;;;;;;;;;;;;;;;19.90;55.00;102060.06;7289360;19;154130;-56
2022/09/17 07:18:18;;;;;;;;;;;;;;;19.88;54.60;102051.94;7285817;19;152635;-56
2022/09/17 07:20:52;;;;;;;;;;;;;;;19.90;54.56;102057.25;7284706;19;154625;-56
2022/09/17 07:23:18;;;;;;;;;;;;;;;19.87;54.55;102055.03;7286299;19;152290;-55
2022/09/17 07:25:50;;;;;;;;;;;;;;;19.87;54.48;102055.03;7284837;19;153112;-56
2022/09/17 07:28:17;;;;;;;;;;;;;;;19.88;54.90;102056.72;7284614;19;153669;-55
2022/09/17 07:30:44;;;;;;;;;;;;;;;19.86;54.72;102054.16;7284990;19;152443;-56
2022/09/17 07:33:11;;;;;;;;;;;;;;;19.86;54.70;102054.16;7285099;19;151743;-56
2022/09/17 07:35:37;;;;;;;;;;;;;;;19.86;54.57;102047.72;7282794;19;153136;-56
2022/09/17 07:38:04;;;;;;;;;;;;;;;19.85;54.70;102043.25;7292110;19;152201;-55
2022/09/17 07:40:31;;;;;;;;;;;;;;;19.85;54.71;102049.69;7284274;19;154071;-55
2022/09/17 07:42:58;;;;;;;;;;;;;;;19.85;55.05;102046.88;7282236;19;152143;-55
2022/09/17 07:45:25;;;;;;;;;;;;;;;19.83;54.67;102037.91;7285014;19;152655;-55
2022/09/17 07:47:53;;;;;;;;;;;;;;;19.85;54.81;102043.25;7282390;19;153258;-55
2022/09/17 07:50:20;;;;;;;;;;;;;;;19.82;55.14;102041.81;7285991;19;152349;-55
2022/09/17 07:52:47;;;;;;;;;;;;;;;19.82;54.97;102040.97;7284666;19;151987;-60
2022/09/17 07:55:14;;;;;;;;;;;;;;;19.83;55.22;102042.69;7283137;19;153567;-55
2022/09/17 07:57:41;;;;;;;;;;;;;;;19.84;55.10;102033.16;7284474;19;152403;-55
2022/09/17 08:00:09;;;;;;;;;;;;;;;19.83;54.92;102042.69;7290750;19;152656;-55
2022/09/17 08:02:36;;;;;;;;;;;;;;;19.82;54.72;102033.41;7284646;19;152141;-55
2022/09/17 08:05:03;;;;;;;;;;;;;;;19.83;54.79;102039.88;7280174;19;154745;-55
2022/09/17 08:07:35;;;;;;;;;;;;;;;19.82;54.78;102030.59;7284348;19;153116;-55
2022/09/17 08:10:02;;;;;;;;;;;;;;;19.82;54.82;102025.00;7285155;19;152345;-55
2022/09/17 08:12:29;;;;;;;;;;;;;;;19.81;55.27;102028.06;7284960;19;152610;-55
2022/09/17 08:14:56;;;;;;;;;;;;;;;19.81;55.06;102028.91;7283167;19;153923;-55
2022/09/17 08:17:33;;;;;;;;;;;;;;;19.81;55.00;102036.47;7281413;19;152490;-55
2022/09/17 08:20:03;;;;;;;;;;;;;;;19.83;55.10;102034.25;7284189;19;152238;-55
2022/09/17 08:22:30;;;;;;;;;;;;;;;19.82;55.04;102036.22;7290235;19;154460;-55
2022/09/17 08:24:57;;;;;;;;;;;;;;;19.83;55.16;102037.06;7284436;19;153734;-56
2022/09/17 08:27:32;;;;;;;;;;;;;;;19.81;54.66;102033.69;7283392;19;154800;-55
2022/09/17 08:30:00;;;;;;;;;;;;;;;19.50;45.42;102036.41;7283371;19;152791;-56
2022/09/17 08:32:28;;;;;;;;;;;;;;;19.39;42.99;102036.63;7281886;19;152677;-55
2022/09/17 08:34:54;;;;;;;;;;;;;;;19.25;41.32;102044.69;7281979;19;153999;-56
2022/09/17 08:37:29;;;;;;;;;;;;;;;19.09;40.47;102048.50;7284518;19;152270;-56
2022/09/17 08:39:57;;;;;;;;;;;;;;;19.08;39.51;102041.22;7283057;19;153431;-56
2022/09/17 08:42:31;;;;;;;;;;;;;;;19.00;40.23;102047.34;7281930;19;154495;-55
2022/09/17 08:45:01;;;;;;;;;;;;;;;18.93;40.09;102039.19;7290230;19;152693;-55
2022/09/17 08:47:35;;;;;;;;;;;;;;;18.87;39.61;102042.22;7281832;19;152928;-56
2022/09/17 08:50:03;;;;;;;;;;;;;;;18.80;39.63;102039.69;7283327;19;152784;-56
2022/09/17 08:52:33;;;;;;;;;;;;;;;18.74;39.53;102037.09;7283325;19;153756;-56
2022/09/17 08:54:59;;;;;;;;;;;;;;;18.65;39.74;102047.97;7280750;19;153923;-56
2022/09/17 08:57:48;;;;;;;;;;;;;;;18.60;39.76;102047.94;7280255;19;152506;-56
2022/09/17 09:00:19;;;;;;;;;;;;;;;18.53;39.49;102050.94;7279946;19;152536;-55
2022/09/17 09:02:58;;;;;;;;;;;;;;;18.47;39.76;102052.00;7273609;19;153864;-55
2022/09/17 09:05:46;;;;;;;;;;;;;;;18.41;39.22;102050.25;7282005;19;151857;-55
2022/09/17 09:08:16;;;;;;;;;;;;;;;18.37;39.93;102048.25;7287604;19;153243;-56
2022/09/17 09:10:43;;;;;;;;;;;;;;;18.35;40.55;102045.72;7282843;19;151831;-55
2022/09/17 09:13:14;;;;;;;;;;;;;;;18.28;40.10;102059.09;7279801;19;152626;-55
2022/09/17 09:15:42;;;;;;;;;;;;;;;18.20;39.15;102060.44;7278547;19;153360;-55
2022/09/17 09:18:20;;;;;;;;;;;;;;;18.13;39.12;102050.56;7286601;19;152300;-56
2022/09/17 09:20:52;;;;;;;;;;;;;;;18.10;38.84;102054.75;7288716;19;153658;-55
2022/09/17 09:23:18;;;;;;;;;;;;;;;18.08;38.58;102050.53;7285367;19;153280;-55
2022/09/17 09:26:05;;;;;;;;;;;;;;;18.07;40.93;102060.88;7238959;19;155675;-55
2022/09/17 09:28:43;;;;;;;;;;;;;;;18.12;44.19;102054.50;7279901;19;152934;-55
2022/09/17 09:31:19;;;;;;;;;;;;;;;18.16;45.13;102062.09;7283160;19;151993;-55
2022/09/17 09:33:46;;;;;;;;;;;;;;;18.22;45.85;102061.00;7282010;19;153528;-55
2022/09/17 09:36:20;;;;;;;;;;;;;;;18.27;47.17;102059.34;7280602;19;152922;-56
2022/09/17 09:38:51;;;;;;;;;;;;;;;18.31;47.52;102052.97;7276844;19;152805;-55
2022/09/17 09:41:39;;;;;;;;;;;;;;;18.35;47.64;102053.31;7282742;19;153037;-55
2022/09/17 09:44:10;;;;;;;;;;;;;;;18.39;47.39;102051.66;7279104;19;153220;-55
2022/09/17 09:46:40;;;;;;;;;;;;;;;18.42;47.75;102048.31;7282067;19;152506;-55
2022/09/17 09:49:12;;;;;;;;;;;;;;;18.45;47.89;102054.22;7283405;19;153310;-55
2022/09/17 09:51:58;;;;;;;;;;;;;;;18.49;47.67;102046.13;7287156;19;154274;-56
2022/09/17 09:54:43;;;;;;;;;;;;;;;18.54;48.05;102051.78;7283333;19;153496;-55
2022/09/17 09:57:12;;;;;;;;;;;;;;;18.58;48.13;102047.34;7284591;19;153922;-55
2022/09/17 09:59:44;;;;;;;;;;;;;;;18.60;48.45;102045.13;7281706;19;152459;-55
2022/09/17 10:02:11;;;;;;;;;;;;;;;18.61;48.69;102050.47;7286331;19;153432;-55
2022/09/17 10:04:38;;;;;;;;;;;;;;;18.68;48.45;102058.63;7284870;19;153111;-55
2022/09/17 10:07:06;;;;;;;;;;;;;;;18.70;48.33;102050.81;7286643;19;152223;-55
2022/09/17 10:09:34;;;;;;;;;;;;;;;18.72;48.47;102056.13;7284234;19;152660;-55
2022/09/17 10:12:02;;;;;;;;;;;;;;;18.74;48.36;102060.34;7284990;19;153611;-55
2022/09/17 10:14:33;;;;;;;;;;;;;;;18.79;48.52;102057.59;7292703;19;152539;-56
2022/09/17 10:17:08;;;;;;;;;;;;;;;18.86;48.73;102060.13;7283326;19;152923;-56
2022/09/17 10:19:35;;;;;;;;;;;;;;;18.90;48.88;102052.88;7285854;19;153925;-56
2022/09/17 10:22:17;;;;;;;;;;;;;;;18.92;48.67;102053.47;7287365;19;152185;-55
2022/09/17 10:24:45;;;;;;;;;;;;;;;18.96;48.82;102044.25;7283752;19;154211;-55
2022/09/17 10:27:16;;;;;;;;;;;;;;;18.98;48.73;102044.00;7279656;19;152205;-56
2022/09/17 10:30:12;;;;;;;;;;;;;;;19.03;49.07;102049.63;7282321;19;153732;-56
2022/09/17 10:32:39;;;;;;;;;;;;;;;19.05;48.74;102039.81;7284215;19;154468;-56
2022/09/17 10:35:06;;;;;;;;;;;;;;;19.07;48.97;102046.00;7284468;19;151888;-56
2022/09/17 10:38:03;;;;;;;;;;;;;;;19.08;49.33;102044.88;7290478;19;152045;-55
2022/09/17 10:40:30;;;;;;;;;;;;;;;19.13;49.17;102043.22;7283752;19;152490;-56
2022/09/17 10:43:15;;;;;;;;;;;;;;;19.20;49.31;102041.00;7283584;19;153043;-55
2022/09/17 10:45:43;;;;;;;;;;;;;;;19.23;48.84;102038.50;7282750;19;152868;-55
2022/09/17 10:48:31;;;;;;;;;;;;;;;19.25;48.66;102041.88;7285417;19;154108;-56
2022/09/17 10:50:58;;;;;;;;;;;;;;;19.29;48.12;102031.81;7286432;19;153746;-56
2022/09/17 10:53:26;;;;;;;;;;;;;;;19.33;48.47;102032.09;7284290;19;153830;-56
2022/09/17 10:56:09;;;;;;;;;;;;;;;19.38;48.54;102021.75;7284802;19;151759;-58
2022/09/17 10:59:10;;;;;;;;;;;;;;;19.37;49.27;102010.81;7276602;19;153094;-57
2022/09/17 11:01:53;;;;;;;;;;;;;;;19.39;48.60;102012.25;7287436;19;152807;-56
2022/09/17 11:04:24;;;;;;;;;;;;;;;19.41;48.69;102014.75;7284271;19;153531;-55
2022/09/17 11:06:57;;;;;;;;;;;;;;;19.43;48.49;102012.53;7284768;19;154022;-55
2022/09/17 11:09:24;;;;;;;;;;;;;;;19.43;48.22;102016.22;7284811;19;152150;-55
2022/09/17 11:11:59;;;;;;;;;;;;;;;19.47;48.00;102011.75;7285693;19;153413;-55
2022/09/17 11:14:45;;;;;;;;;;;;;;;19.52;48.02;102011.75;7283627;19;153483;-55
2022/09/17 11:17:39;;;;;;;;;;;;;;;19.57;47.83;102019.34;7274212;19;152513;-56
2022/09/17 11:20:23;;;;;;;;;;;;;;;19.58;48.51;102007.00;7279565;19;152537;-55
2022/09/17 11:23:08;;;;;;;;;;;;;;;19.59;47.28;102014.28;7273312;19;154061;-56
2022/09/17 11:25:54;;;;;;;;;;;;;;;19.65;47.47;102009.53;7289843;19;152435;-56
2022/09/17 11:28:42;;;;;;;;;;;;;;;19.68;47.06;102008.97;7273110;19;153826;-56
2022/09/17 11:31:33;;;;;;;;;;;;;;;19.69;47.25;102003.09;7276053;19;153422;-55
2022/09/17 11:34:15;;;;;;;;;;;;;;;19.71;47.17;101992.47;7278826;19;154254;-55
2022/09/17 11:36:46;;;;;;;;;;;;;;;19.71;47.77;101998.06;7278919;19;154308;-55
2022/09/17 11:39:17;;;;;;;;;;;;;;;19.73;47.80;101998.63;7280089;19;152280;-55
2022/09/17 11:41:47;;;;;;;;;;;;;;;19.76;47.18;101995.25;7279955;19;153699;-55
2022/09/17 11:44:23;;;;;;;;;;;;;;;19.78;47.16;101992.19;7278001;19;153317;-55
2022/09/17 11:47:04;;;;;;;;;;;;;;;19.81;47.97;101992.47;7283536;19;152455;-55
2022/09/17 11:49:50;;;;;;;;;;;;;;;19.81;48.09;101991.63;7278186;19;153289;-55
2022/09/17 11:52:20;;;;;;;;;;;;;;;19.82;47.88;101988.53;7279108;19;152428;-55
2022/09/17 11:55:01;;;;;;;;;;;;;;;19.83;47.87;101981.81;7279362;19;153352;-55
2022/09/17 11:57:40;;;;;;;;;;;;;;;19.86;47.94;101978.44;7276786;19;153514;-56
2022/09/17 12:00:16;;;;;;;;;;;;;;;19.89;47.61;101972.31;7278877;19;151988;-56
2022/09/17 12:03:06;;;;;;;;;;;;;;;19.91;47.64;101961.63;7278184;19;152852;-55
2022/09/17 12:05:38;;;;;;;;;;;;;;;19.92;47.64;101966.13;7278735;19;153813;-56
2022/09/17 12:08:16;;;;;;;;;;;;;;;19.93;47.75;101973.44;7280610;19;152507;-55
2022/09/17 12:10:43;;;;;;;;;;;;;;;19.97;47.40;101968.09;7287137;19;151785;-55
2022/09/17 12:13:28;;;;;;;;;;;;;;;19.99;47.38;101968.63;7281373;19;152132;-56
2022/09/17 12:16:09;;;;;;;;;;;;;;;20.01;47.07;101959.94;7280926;19;153133;-56
2022/09/17 12:19:11;;;;;;;;;;;;;;;20.03;47.16;101957.72;7281744;19;152726;-56
2022/09/17 12:21:48;;;;;;;;;;;;;;;20.04;47.61;101960.22;7279793;19;152380;-56
2022/09/17 12:24:21;;;;;;;;;;;;;;;20.05;47.47;101958.25;7277800;19;154037;-56
2022/09/17 12:27:06;;;;;;;;;;;;;;;20.06;47.48;101962.75;7282063;19;154713;-56
2022/09/17 12:29:45;;;;;;;;;;;;;;;20.06;47.25;101959.94;7276861;19;152506;-55
2022/09/17 12:35:43;;;;;;;;;;;;;;;20.10;47.33;101952.66;7279770;19;152995;-56
2022/09/17 12:38:30;;;;;;;;;;;;;;;20.10;47.64;101967.53;7280447;19;152660;-56
2022/09/17 12:40:56;;;;;;;;;;;;;;;20.11;47.44;101965.56;7283119;19;154386;-55
2022/09/17 12:43:34;;;;;;;;;;;;;;;20.12;47.46;101967.25;7278737;19;152267;-55
2022/09/17 12:46:01;;;;;;;;;;;;;;;20.12;47.59;101959.69;7282549;19;152967;-56
2022/09/17 12:48:46;;;;;;;;;;;;;;;20.14;47.44;101965.00;7280085;19;153308;-56
2022/09/17 12:51:20;;;;;;;;;;;;;;;20.15;47.59;101961.91;7282556;19;152427;-56
2022/09/17 12:53:59;;;;;;;;;;;;;;;20.15;47.66;101952.66;7282888;19;152711;-56